AXH weather

Houston Southwest Airport
Houston, Texas, United States

Public forecast

Using degrees Fahrenheit for public forecast. Weather courtesy of forecast.io.

Current aviation weather report (METAR) for Houston Southwest Airport

Retrieved 2019/12/15 12:35 UTC (16 minutes ago):

KAXH 151235Z AUTO 00000KT 3/4SM BR OVC002 17/17 A2984 RMK AO2 T01730173

Closest aviation forecast (TAF) to Houston Southwest Airport

Closest forecast is Sugar Land Regional Airport, 11.7 nm (21.6 km) NW. Retrieved 2019/12/15 12:42 UTC (9 minutes ago):

TAF KSGR 151140Z 1512/1612 18011KT P6SM BKN007 OVC011 FM151700 20012KT P6SM BKN012 FM151900 19015KT P6SM SCT015 FM160100 17009KT P6SM BKN012 FM160300 18009KT P6SM VCSH BKN010